Relevés horaires Bierset (Belgique)


Relevés horaires à Bierset - Lundi 01 Juin 2020
Heure UTC1 Température [°C] Vent [km/h] Hum. [%] Pres.4 [hPa] Visi. [Km] Nébu. [octa] Préc.5 [mm] Cond.
2m. Res. Ros. Dir.2 Vit. Moy. Raf.3
23:00 17.3 17.3 4.7 ENE 1.9 3.7 3.7 43 1020(0.6/3h) 30 5/8 -- --
22:00 18.2 18.2 6.0 N 1.9 1.9 3.7 45 1020(0.9/3h) 30 5/8 -- --
21:00 18.2 18.2 6.9 NNO 1.9 9.3 13.0 48 1019.7(0.6/3h) 30 5/8 -- --
20:00 19.8 19.8 7.3 NNE 5.6 7.4 11.1 44 1019.1(-0.2/3h) 30 5/8 -- --
19:00 22.0 22.0 7.7 NNE 5.6 9.3 13.0 40 1018.8(-0.3/3h) 30 3/8 -- --
18:00 23.4 23.4 7.4 NNE 7.4 13.0 20.4 36 1018.6(-0.6/3h) 30 3/8 0/12h
--
17:00 24.9 24.9 7.1 NNE 9.3 11.1 16.7 32 1018.6(-0.8/3h) 30 3/8 -- --
16:00 25.6 25.6 6.5 NE 9.3 11.1 18.5 29 1018.8(-1.0/3h) 30 3/8 -- --
15:00 25.5 25.5 6.5 NNE 11.1 13.0 20.4 30 1019.1(-1.1/3h) 30 3/8 -- --
14:00 25.5 25.5 7.1 NE 9.3 13.0 20.4 31 1019.4(-1.2/3h) 30 3/8 -- --
13:00 24.5 24.5 7.0 NE 11.1 13.0 20.4 33 1020(-1.1/3h) 30 3/8 -- --
12:00 24.3 24.3 7.6 ENE 11.1 13.0 20.4 34 1020.3(-1.1/3h) 30 3/8 0/6h
--
11:00 23.1 23.1 7.4 ENE 9.3 11.1 16.7 36 1020.8(-0.8/3h) 30 3/8 -- --
10:00 21.4 21.4 6.7 NE 11.1 11.1 20.4 39 1021.3(-0.4/3h) 30 3/8 -- --
09:00 20.7 20.7 7.0 ENE 9.3 11.1 16.7 41 1021.8(0.1/3h) 30 4/8 -- --
08:00 19.3 19.3 6.2 ENE 9.3 11.1 14.8 42 1021.8(0.3/3h) 30 3/8 -- --
07:00 18.0 18.0 6.2 ENE 7.4 9.3 16.7 46 1022(0.6/3h) 30 4/8 -- --
06:00 16.0 16.0 5.7 E 5.6 7.4 16.7 50 1022(0.2/3h) 30 3/8 0/12h
--
05:00 13.5 13.5 5.8 E 5.6 5.6 7.4 60 1022(0.0/3h) 30 2/8 -- --
04:00 12.3 12.3 5.8 E 1.9 3.7 3.7 64 1021.8(-0.3/3h) 30 2/8 -- --
03:00 11.4 11.4 5.4 ENE 3.7 7.4 16.7 67 1022.2(-0.2/3h) 30 2/8 -- --
02:00 13.8 13.8 5.1 E 3.7 5.6 16.7 56 1021.9(-0.1/3h) 30 2/8 -- --
01:00 14.2 14.2 5.1 E 5.6 7.4 16.7 54 1022(0.1/3h) 30 4/8 -- --
00:00 14.3 14.3 5.9 ENE 5.6 13.0 22.2 57 1022.1(0.6/3h) 30 4/8 0/6h
0/24h
--

1 Coordinated Universal Time. Actuellement il est 07:00 locale et 05:00 UTC.

2 Le vent souffle depuis la direction indiquée vers la direction oposée.

3 Les rafales max. sont disponible 40 min après l'heure du relevé.

4 Pour les stations d'altitude (plus de 600m) le géopotentiel du niveau le plus proche de la pression obligatoire est indiqué.

5 Les stations disposant d'un diffuseur peuvent indiquer "trace". Cela signifie que des précipitations ont touchés le sol mais que la quantité est inférieure à 0.1 mm.

Récapitulatif de la journée
Température [°C] Vent [km/h] Ensoleillement4 [h] Precipitations totale5 [mm] Pression [Hpa]
Min1 Max.2 Moy.3 Max. Min Max.
11.4 26.0 9.3 22.2 0 h 0 min 0 1018.6 1022.2

1 Température minimale relevée entre 18:00 UTC la veille et 18:00 UTC le jour donné.

2 Température maximale relevée entre 06:00 UTC le jour donné et 06:00 UTC le lendemain.

3 Vent moyen de la journée basé sur les relevés horaires.

4 Ensoleillement en heures relevé entre 06:00 UTC la veille et 06:00 UTC le jour donné.

5 Précipitations totales tombées entre 06:00 UTC la jour donné et 06:00 UTC le lendemain.

Graphiques horaires